sensor_id;sensor_type;location;lat;lon;timestamp;P1;durP1;ratioP1;P2;durP2;ratioP2
57828;SDS011;43657;52.698;6.314;2022-10-16T00:01:15;4.85;;;2.33;;
57828;SDS011;43657;52.698;6.314;2022-10-16T00:03:43;3.55;;;1.85;;
57828;SDS011;43657;52.698;6.314;2022-10-16T00:06:10;8.05;;;2.60;;
57828;SDS011;43657;52.698;6.314;2022-10-16T00:08:36;8.05;;;2.58;;
57828;SDS011;43657;52.698;6.314;2022-10-16T00:11:07;7.47;;;2.50;;
57828;SDS011;43657;52.698;6.314;2022-10-16T00:13:42;4.97;;;2.08;;
57828;SDS011;43657;52.698;6.314;2022-10-16T00:16:09;6.15;;;2.40;;
57828;SDS011;43657;52.698;6.314;2022-10-16T00:18:35;4.60;;;2.20;;
57828;SDS011;43657;52.698;6.314;2022-10-16T00:21:06;4.78;;;2.25;;
57828;SDS011;43657;52.698;6.314;2022-10-16T00:23:53;6.95;;;2.20;;
57828;SDS011;43657;52.698;6.314;2022-10-16T00:26:30;6.75;;;2.08;;
57828;SDS011;43657;52.698;6.314;2022-10-16T00:28:57;6.75;;;2.00;;
57828;SDS011;43657;52.698;6.314;2022-10-16T00:31:24;3.85;;;1.90;;
57828;SDS011;43657;52.698;6.314;2022-10-16T00:33:50;7.55;;;2.10;;
57828;SDS011;43657;52.698;6.314;2022-10-16T00:36:18;6.10;;;2.30;;
57828;SDS011;43657;52.698;6.314;2022-10-16T00:38:45;5.60;;;2.28;;
57828;SDS011;43657;52.698;6.314;2022-10-16T00:41:16;7.30;;;2.30;;
57828;SDS011;43657;52.698;6.314;2022-10-16T00:43:46;6.07;;;2.60;;
57828;SDS011;43657;52.698;6.314;2022-10-16T00:46:15;5.35;;;2.50;;
57828;SDS011;43657;52.698;6.314;2022-10-16T00:49:03;4.75;;;2.15;;
57828;SDS011;43657;52.698;6.314;2022-10-16T00:54:11;5.22;;;2.10;;
57828;SDS011;43657;52.698;6.314;2022-10-16T00:56:41;4.25;;;2.20;;
57828;SDS011;43657;52.698;6.314;2022-10-16T00:59:14;7.28;;;2.30;;
57828;SDS011;43657;52.698;6.314;2022-10-16T01:01:42;6.93;;;2.75;;
57828;SDS011;43657;52.698;6.314;2022-10-16T01:04:08;4.53;;;2.10;;
57828;SDS011;43657;52.698;6.314;2022-10-16T01:06:40;3.80;;;1.73;;
57828;SDS011;43657;52.698;6.314;2022-10-16T01:12:39;4.53;;;2.13;;
57828;SDS011;43657;52.698;6.314;2022-10-16T01:17:48;4.20;;;2.08;;
57828;SDS011;43657;52.698;6.314;2022-10-16T01:28:24;3.58;;;2.30;;
57828;SDS011;43657;52.698;6.314;2022-10-16T01:31:09;4.82;;;2.10;;
57828;SDS011;43657;52.698;6.314;2022-10-16T01:33:43;2.97;;;1.80;;
57828;SDS011;43657;52.698;6.314;2022-10-16T01:36:17;6.78;;;2.95;;
57828;SDS011;43657;52.698;6.314;2022-10-16T01:38:49;5.05;;;2.42;;
57828;SDS011;43657;52.698;6.314;2022-10-16T01:41:52;3.05;;;2.22;;
57828;SDS011;43657;52.698;6.314;2022-10-16T01:46:43;4.22;;;2.20;;
57828;SDS011;43657;52.698;6.314;2022-10-16T01:49:12;6.63;;;2.47;;
57828;SDS011;43657;52.698;6.314;2022-10-16T01:51:38;5.05;;;1.95;;
57828;SDS011;43657;52.698;6.314;2022-10-16T01:54:06;4.25;;;2.20;;
57828;SDS011;43657;52.698;6.314;2022-10-16T01:56:33;6.15;;;2.53;;
57828;SDS011;43657;52.698;6.314;2022-10-16T01:59:05;3.85;;;2.20;;
57828;SDS011;43657;52.698;6.314;2022-10-16T02:01:35;3.70;;;1.90;;
57828;SDS011;43657;52.698;6.314;2022-10-16T02:04:10;4.43;;;2.25;;
57828;SDS011;43657;52.698;6.314;2022-10-16T02:06:56;5.45;;;2.17;;
57828;SDS011;43657;52.698;6.314;2022-10-16T02:09:22;6.57;;;2.35;;
57828;SDS011;43657;52.698;6.314;2022-10-16T02:11:48;4.90;;;2.47;;
57828;SDS011;43657;52.698;6.314;2022-10-16T02:14:16;4.43;;;2.03;;
57828;SDS011;43657;52.698;6.314;2022-10-16T02:16:42;4.15;;;2.22;;
57828;SDS011;43657;52.698;6.314;2022-10-16T02:19:09;5.53;;;2.10;;
57828;SDS011;43657;52.698;6.314;2022-10-16T02:21:42;4.07;;;2.25;;
57828;SDS011;43657;52.698;6.314;2022-10-16T02:24:59;6.43;;;2.40;;
57828;SDS011;43657;52.698;6.314;2022-10-16T02:27:27;4.70;;;2.63;;
57828;SDS011;43657;52.698;6.314;2022-10-16T02:33:03;3.55;;;2.20;;
57828;SDS011;43657;52.698;6.314;2022-10-16T02:35:32;6.97;;;2.50;;
57828;SDS011;43657;52.698;6.314;2022-10-16T02:37:58;4.05;;;2.53;;
57828;SDS011;43657;52.698;6.314;2022-10-16T02:40:24;4.80;;;2.42;;
57828;SDS011;43657;52.698;6.314;2022-10-16T02:42:51;4.00;;;2.42;;
57828;SDS011;43657;52.698;6.314;2022-10-16T02:45:18;3.45;;;2.40;;
57828;SDS011;43657;52.698;6.314;2022-10-16T02:47:44;5.80;;;2.72;;
57828;SDS011;43657;52.698;6.314;2022-10-16T02:50:10;4.70;;;2.10;;
57828;SDS011;43657;52.698;6.314;2022-10-16T02:52:35;5.20;;;2.25;;
57828;SDS011;43657;52.698;6.314;2022-10-16T02:55:01;4.60;;;2.08;;
57828;SDS011;43657;52.698;6.314;2022-10-16T02:57:27;3.38;;;2.08;;
57828;SDS011;43657;52.698;6.314;2022-10-16T02:59:52;5.00;;;1.98;;
57828;SDS011;43657;52.698;6.314;2022-10-16T03:02:18;3.50;;;2.38;;
57828;SDS011;43657;52.698;6.314;2022-10-16T03:04:44;6.55;;;2.28;;
57828;SDS011;43657;52.698;6.314;2022-10-16T03:07:10;2.35;;;2.10;;
57828;SDS011;43657;52.698;6.314;2022-10-16T03:09:35;4.38;;;2.60;;
57828;SDS011;43657;52.698;6.314;2022-10-16T03:12:01;3.80;;;2.45;;
57828;SDS011;43657;52.698;6.314;2022-10-16T03:14:27;3.53;;;2.13;;
57828;SDS011;43657;52.698;6.314;2022-10-16T03:16:53;4.70;;;2.50;;
57828;SDS011;43657;52.698;6.314;2022-10-16T03:19:18;4.80;;;2.50;;
57828;SDS011;43657;52.698;6.314;2022-10-16T03:21:44;4.60;;;2.63;;
57828;SDS011;43657;52.698;6.314;2022-10-16T03:24:10;4.68;;;2.85;;
57828;SDS011;43657;52.698;6.314;2022-10-16T03:26:36;3.08;;;2.58;;
57828;SDS011;43657;52.698;6.314;2022-10-16T03:29:02;6.53;;;2.90;;
57828;SDS011;43657;52.698;6.314;2022-10-16T03:31:28;5.43;;;2.70;;
57828;SDS011;43657;52.698;6.314;2022-10-16T03:33:54;4.00;;;2.88;;
57828;SDS011;43657;52.698;6.314;2022-10-16T03:36:20;3.53;;;2.63;;
57828;SDS011;43657;52.698;6.314;2022-10-16T03:38:45;4.60;;;2.78;;
57828;SDS011;43657;52.698;6.314;2022-10-16T03:41:11;4.68;;;2.58;;
57828;SDS011;43657;52.698;6.314;2022-10-16T03:43:36;7.80;;;3.10;;
57828;SDS011;43657;52.698;6.314;2022-10-16T03:46:02;5.18;;;3.22;;
57828;SDS011;43657;52.698;6.314;2022-10-16T03:48:28;4.95;;;3.08;;
57828;SDS011;43657;52.698;6.314;2022-10-16T03:50:53;5.35;;;3.40;;
57828;SDS011;43657;52.698;6.314;2022-10-16T03:53:19;7.80;;;3.50;;
57828;SDS011;43657;52.698;6.314;2022-10-16T03:55:45;4.68;;;3.25;;
57828;SDS011;43657;52.698;6.314;2022-10-16T03:58:11;4.82;;;3.25;;
57828;SDS011;43657;52.698;6.314;2022-10-16T04:00:43;5.75;;;3.47;;
57828;SDS011;43657;52.698;6.314;2022-10-16T04:03:10;8.30;;;3.90;;
57828;SDS011;43657;52.698;6.314;2022-10-16T04:05:36;7.15;;;3.50;;
57828;SDS011;43657;52.698;6.314;2022-10-16T04:08:02;5.30;;;3.50;;
57828;SDS011;43657;52.698;6.314;2022-10-16T04:10:27;4.47;;;3.30;;
57828;SDS011;43657;52.698;6.314;2022-10-16T04:12:53;5.80;;;3.50;;
57828;SDS011;43657;52.698;6.314;2022-10-16T04:15:21;6.22;;;3.40;;
57828;SDS011;43657;52.698;6.314;2022-10-16T04:17:47;5.32;;;3.63;;
57828;SDS011;43657;52.698;6.314;2022-10-16T04:20:12;5.18;;;3.45;;
57828;SDS011;43657;52.698;6.314;2022-10-16T04:22:38;4.88;;;4.10;;
57828;SDS011;43657;52.698;6.314;2022-10-16T04:25:04;8.35;;;4.10;;
57828;SDS011;43657;52.698;6.314;2022-10-16T04:27:30;8.05;;;4.05;;
57828;SDS011;43657;52.698;6.314;2022-10-16T04:29:56;5.32;;;3.70;;
57828;SDS011;43657;52.698;6.314;2022-10-16T04:32:23;6.78;;;4.18;;
57828;SDS011;43657;52.698;6.314;2022-10-16T04:34:48;7.28;;;4.40;;
57828;SDS011;43657;52.698;6.314;2022-10-16T04:37:14;10.10;;;4.63;;
57828;SDS011;43657;52.698;6.314;2022-10-16T04:39:39;5.30;;;3.90;;
57828;SDS011;43657;52.698;6.314;2022-10-16T04:42:05;4.38;;;3.83;;
57828;SDS011;43657;52.698;6.314;2022-10-16T04:44:30;8.02;;;4.05;;
57828;SDS011;43657;52.698;6.314;2022-10-16T04:46:56;7.15;;;4.63;;
57828;SDS011;43657;52.698;6.314;2022-10-16T04:49:22;6.95;;;4.10;;
57828;SDS011;43657;52.698;6.314;2022-10-16T04:51:47;5.80;;;4.00;;
57828;SDS011;43657;52.698;6.314;2022-10-16T04:54:13;7.63;;;4.35;;
57828;SDS011;43657;52.698;6.314;2022-10-16T04:56:38;5.30;;;3.80;;
57828;SDS011;43657;52.698;6.314;2022-10-16T04:59:15;6.78;;;4.40;;
57828;SDS011;43657;52.698;6.314;2022-10-16T05:01:41;6.30;;;4.50;;
57828;SDS011;43657;52.698;6.314;2022-10-16T05:04:07;5.07;;;4.00;;
57828;SDS011;43657;52.698;6.314;2022-10-16T05:06:33;7.60;;;4.90;;
57828;SDS011;43657;52.698;6.314;2022-10-16T05:08:58;5.10;;;4.22;;
57828;SDS011;43657;52.698;6.314;2022-10-16T05:11:24;4.88;;;4.03;;
57828;SDS011;43657;52.698;6.314;2022-10-16T05:13:49;4.85;;;4.07;;
57828;SDS011;43657;52.698;6.314;2022-10-16T05:16:15;5.85;;;3.95;;
57828;SDS011;43657;52.698;6.314;2022-10-16T05:18:41;5.28;;;4.07;;
57828;SDS011;43657;52.698;6.314;2022-10-16T05:21:06;5.32;;;4.18;;
57828;SDS011;43657;52.698;6.314;2022-10-16T05:23:32;4.88;;;4.28;;
57828;SDS011;43657;52.698;6.314;2022-10-16T05:25:58;5.20;;;4.03;;
57828;SDS011;43657;52.698;6.314;2022-10-16T05:28:28;6.40;;;4.18;;
57828;SDS011;43657;52.698;6.314;2022-10-16T05:30:55;5.10;;;3.75;;
57828;SDS011;43657;52.698;6.314;2022-10-16T05:33:21;6.05;;;4.22;;
57828;SDS011;43657;52.698;6.314;2022-10-16T05:35:48;8.35;;;4.55;;
57828;SDS011;43657;52.698;6.314;2022-10-16T05:38:14;5.40;;;3.90;;
57828;SDS011;43657;52.698;6.314;2022-10-16T05:40:40;6.18;;;4.32;;
57828;SDS011;43657;52.698;6.314;2022-10-16T05:43:06;6.05;;;4.10;;
57828;SDS011;43657;52.698;6.314;2022-10-16T05:45:31;6.47;;;4.00;;
57828;SDS011;43657;52.698;6.314;2022-10-16T05:47:57;5.80;;;4.13;;
57828;SDS011;43657;52.698;6.314;2022-10-16T05:50:23;6.07;;;3.83;;
57828;SDS011;43657;52.698;6.314;2022-10-16T05:52:48;6.45;;;3.70;;
57828;SDS011;43657;52.698;6.314;2022-10-16T05:55:14;5.72;;;4.15;;
57828;SDS011;43657;52.698;6.314;2022-10-16T05:57:40;5.82;;;3.80;;
57828;SDS011;43657;52.698;6.314;2022-10-16T06:00:06;5.95;;;3.80;;
57828;SDS011;43657;52.698;6.314;2022-10-16T06:02:32;5.93;;;3.47;;
57828;SDS011;43657;52.698;6.314;2022-10-16T06:04:57;4.93;;;3.22;;
57828;SDS011;43657;52.698;6.314;2022-10-16T06:07:23;7.93;;;3.45;;
57828;SDS011;43657;52.698;6.314;2022-10-16T06:09:52;5.22;;;3.53;;
57828;SDS011;43657;52.698;6.314;2022-10-16T06:12:18;5.63;;;3.50;;
57828;SDS011;43657;52.698;6.314;2022-10-16T06:14:44;5.07;;;3.15;;
57828;SDS011;43657;52.698;6.314;2022-10-16T06:17:13;6.57;;;3.17;;
57828;SDS011;43657;52.698;6.314;2022-10-16T06:19:39;4.63;;;3.03;;
57828;SDS011;43657;52.698;6.314;2022-10-16T06:22:05;5.50;;;3.00;;
57828;SDS011;43657;52.698;6.314;2022-10-16T06:24:31;4.20;;;2.75;;
57828;SDS011;43657;52.698;6.314;2022-10-16T06:26:57;6.00;;;3.00;;
57828;SDS011;43657;52.698;6.314;2022-10-16T06:29:22;5.35;;;3.00;;
57828;SDS011;43657;52.698;6.314;2022-10-16T06:31:48;4.50;;;3.00;;
57828;SDS011;43657;52.698;6.314;2022-10-16T06:34:13;4.32;;;2.70;;
57828;SDS011;43657;52.698;6.314;2022-10-16T06:36:39;5.53;;;2.53;;
57828;SDS011;43657;52.698;6.314;2022-10-16T06:39:05;5.18;;;2.75;;
57828;SDS011;43657;52.698;6.314;2022-10-16T06:41:32;4.43;;;2.88;;
57828;SDS011;43657;52.698;6.314;2022-10-16T06:43:58;5.57;;;2.38;;
57828;SDS011;43657;52.698;6.314;2022-10-16T06:46:24;6.93;;;2.75;;
57828;SDS011;43657;52.698;6.314;2022-10-16T06:48:51;5.45;;;2.60;;
57828;SDS011;43657;52.698;6.314;2022-10-16T06:51:18;3.55;;;2.28;;
57828;SDS011;43657;52.698;6.314;2022-10-16T06:53:45;5.95;;;2.75;;
57828;SDS011;43657;52.698;6.314;2022-10-16T06:56:15;4.88;;;2.60;;
57828;SDS011;43657;52.698;6.314;2022-10-16T06:58:43;5.65;;;2.20;;
57828;SDS011;43657;52.698;6.314;2022-10-16T07:01:10;4.28;;;2.58;;
57828;SDS011;43657;52.698;6.314;2022-10-16T07:03:37;6.22;;;2.28;;
57828;SDS011;43657;52.698;6.314;2022-10-16T07:06:04;4.10;;;2.33;;
57828;SDS011;43657;52.698;6.314;2022-10-16T07:08:36;5.18;;;1.90;;
57828;SDS011;43657;52.698;6.314;2022-10-16T07:11:07;3.42;;;2.33;;
57828;SDS011;43657;52.698;6.314;2022-10-16T07:13:35;4.63;;;2.20;;
57828;SDS011;43657;52.698;6.314;2022-10-16T07:16:05;3.55;;;2.25;;
57828;SDS011;43657;52.698;6.314;2022-10-16T07:18:31;5.93;;;2.40;;
57828;SDS011;43657;52.698;6.314;2022-10-16T07:21:07;3.10;;;2.00;;
57828;SDS011;43657;52.698;6.314;2022-10-16T07:23:44;8.98;;;2.45;;
57828;SDS011;43657;52.698;6.314;2022-10-16T07:26:10;4.43;;;2.50;;
57828;SDS011;43657;52.698;6.314;2022-10-16T07:28:36;4.30;;;1.90;;
57828;SDS011;43657;52.698;6.314;2022-10-16T07:31:03;3.47;;;1.98;;
57828;SDS011;43657;52.698;6.314;2022-10-16T07:33:33;4.70;;;2.33;;
57828;SDS011;43657;52.698;6.314;2022-10-16T07:35:59;3.58;;;1.88;;
57828;SDS011;43657;52.698;6.314;2022-10-16T07:38:25;6.57;;;1.63;;
57828;SDS011;43657;52.698;6.314;2022-10-16T07:41:01;7.15;;;1.83;;
57828;SDS011;43657;52.698;6.314;2022-10-16T07:43:28;3.83;;;1.45;;
57828;SDS011;43657;52.698;6.314;2022-10-16T07:45:54;3.47;;;1.15;;
57828;SDS011;43657;52.698;6.314;2022-10-16T07:48:20;3.70;;;1.05;;
57828;SDS011;43657;52.698;6.314;2022-10-16T07:50:47;2.17;;;0.80;;
57828;SDS011;43657;52.698;6.314;2022-10-16T07:53:13;2.28;;;0.90;;
57828;SDS011;43657;52.698;6.314;2022-10-16T07:55:39;6.10;;;0.80;;
57828;SDS011;43657;52.698;6.314;2022-10-16T07:58:05;3.25;;;1.00;;
57828;SDS011;43657;52.698;6.314;2022-10-16T08:00:31;3.00;;;1.00;;
57828;SDS011;43657;52.698;6.314;2022-10-16T08:02:57;2.05;;;0.95;;
57828;SDS011;43657;52.698;6.314;2022-10-16T08:05:27;6.53;;;1.23;;
57828;SDS011;43657;52.698;6.314;2022-10-16T08:07:54;2.78;;;0.93;;
57828;SDS011;43657;52.698;6.314;2022-10-16T08:10:20;3.60;;;1.20;;
57828;SDS011;43657;52.698;6.314;2022-10-16T08:12:46;4.72;;;1.50;;
57828;SDS011;43657;52.698;6.314;2022-10-16T08:15:12;4.45;;;1.80;;
57828;SDS011;43657;52.698;6.314;2022-10-16T08:17:38;3.38;;;2.00;;
57828;SDS011;43657;52.698;6.314;2022-10-16T08:20:04;3.28;;;2.20;;
57828;SDS011;43657;52.698;6.314;2022-10-16T08:22:30;5.72;;;2.38;;
57828;SDS011;43657;52.698;6.314;2022-10-16T08:24:56;6.57;;;2.47;;
57828;SDS011;43657;52.698;6.314;2022-10-16T08:27:21;3.97;;;2.40;;
57828;SDS011;43657;52.698;6.314;2022-10-16T08:29:48;4.82;;;2.40;;
57828;SDS011;43657;52.698;6.314;2022-10-16T08:32:14;4.32;;;2.30;;
57828;SDS011;43657;52.698;6.314;2022-10-16T08:34:39;5.25;;;2.50;;
57828;SDS011;43657;52.698;6.314;2022-10-16T08:37:05;5.13;;;2.45;;
57828;SDS011;43657;52.698;6.314;2022-10-16T08:39:32;4.70;;;2.20;;
57828;SDS011;43657;52.698;6.314;2022-10-16T08:42:07;5.25;;;2.38;;
57828;SDS011;43657;52.698;6.314;2022-10-16T08:47:33;5.30;;;2.35;;
57828;SDS011;43657;52.698;6.314;2022-10-16T08:50:05;4.65;;;2.47;;
57828;SDS011;43657;52.698;6.314;2022-10-16T08:52:35;4.93;;;2.35;;
57828;SDS011;43657;52.698;6.314;2022-10-16T08:55:05;5.25;;;1.85;;
57828;SDS011;43657;52.698;6.314;2022-10-16T08:57:31;5.47;;;2.15;;
57828;SDS011;43657;52.698;6.314;2022-10-16T09:00:05;4.35;;;2.30;;
57828;SDS011;43657;52.698;6.314;2022-10-16T09:02:45;6.53;;;2.33;;
57828;SDS011;43657;52.698;6.314;2022-10-16T09:08:28;5.72;;;1.92;;
57828;SDS011;43657;52.698;6.314;2022-10-16T09:10:59;3.22;;;1.55;;
57828;SDS011;43657;52.698;6.314;2022-10-16T09:16:31;3.72;;;1.65;;
57828;SDS011;43657;52.698;6.314;2022-10-16T09:19:09;3.88;;;1.60;;
57828;SDS011;43657;52.698;6.314;2022-10-16T09:21:44;4.93;;;1.92;;
57828;SDS011;43657;52.698;6.314;2022-10-16T09:24:18;3.88;;;1.88;;
57828;SDS011;43657;52.698;6.314;2022-10-16T09:26:46;5.93;;;1.83;;
57828;SDS011;43657;52.698;6.314;2022-10-16T09:29:15;4.20;;;1.75;;
57828;SDS011;43657;52.698;6.314;2022-10-16T09:31:45;4.18;;;1.60;;
57828;SDS011;43657;52.698;6.314;2022-10-16T09:34:56;6.88;;;1.50;;
57828;SDS011;43657;52.698;6.314;2022-10-16T09:37:03;5.57;;;1.95;;
57828;SDS011;43657;52.698;6.314;2022-10-16T09:42:14;7.80;;;1.73;;
57828;SDS011;43657;52.698;6.314;2022-10-16T09:45:19;5.93;;;1.30;;
57828;SDS011;43657;52.698;6.314;2022-10-16T09:47:47;7.32;;;1.50;;
57828;SDS011;43657;52.698;6.314;2022-10-16T09:50:54;8.35;;;1.63;;
57828;SDS011;43657;52.698;6.314;2022-10-16T09:53:12;7.53;;;2.13;;
57828;SDS011;43657;52.698;6.314;2022-10-16T09:55:48;6.57;;;1.70;;
57828;SDS011;43657;52.698;6.314;2022-10-16T09:58:15;5.10;;;1.27;;
57828;SDS011;43657;52.698;6.314;2022-10-16T10:00:41;5.63;;;1.67;;
57828;SDS011;43657;52.698;6.314;2022-10-16T10:03:32;9.20;;;1.48;;
57828;SDS011;43657;52.698;6.314;2022-10-16T10:06:23;7.22;;;1.67;;
57828;SDS011;43657;52.698;6.314;2022-10-16T10:11:36;6.72;;;1.63;;
57828;SDS011;43657;52.698;6.314;2022-10-16T10:14:27;6.32;;;1.55;;
57828;SDS011;43657;52.698;6.314;2022-10-16T10:22:29;6.45;;;2.30;;
57828;SDS011;43657;52.698;6.314;2022-10-16T10:27:21;6.75;;;1.58;;
57828;SDS011;43657;52.698;6.314;2022-10-16T10:29:57;5.90;;;1.15;;
57828;SDS011;43657;52.698;6.314;2022-10-16T10:38:25;5.63;;;1.33;;
57828;SDS011;43657;52.698;6.314;2022-10-16T10:55:31;5.07;;;1.55;;
57828;SDS011;43657;52.698;6.314;2022-10-16T11:03:35;9.77;;;1.83;;
57828;SDS011;43657;52.698;6.314;2022-10-16T11:15:29;3.83;;;1.40;;
57828;SDS011;43657;52.698;6.314;2022-10-16T11:20:56;7.57;;;1.60;;
57828;SDS011;43657;52.698;6.314;2022-10-16T11:23:28;6.90;;;1.30;;
57828;SDS011;43657;52.698;6.314;2022-10-16T11:25:56;6.68;;;2.17;;
57828;SDS011;43657;52.698;6.314;2022-10-16T11:28:59;8.32;;;1.92;;
57828;SDS011;43657;52.698;6.314;2022-10-16T11:31:50;7.07;;;1.60;;
57828;SDS011;43657;52.698;6.314;2022-10-16T11:34:34;8.38;;;1.73;;
57828;SDS011;43657;52.698;6.314;2022-10-16T11:40:19;4.88;;;1.23;;
57828;SDS011;43657;52.698;6.314;2022-10-16T11:43:39;8.63;;;1.20;;
57828;SDS011;43657;52.698;6.314;2022-10-16T11:46:40;9.27;;;1.67;;
57828;SDS011;43657;52.698;6.314;2022-10-16T11:49:42;6.00;;;1.40;;
57828;SDS011;43657;52.698;6.314;2022-10-16T11:55:42;5.28;;;1.45;;
57828;SDS011;43657;52.698;6.314;2022-10-16T12:02:21;4.22;;;1.02;;
57828;SDS011;43657;52.698;6.314;2022-10-16T12:08:14;2.22;;;1.25;;
57828;SDS011;43657;52.698;6.314;2022-10-16T12:10:53;4.60;;;1.10;;
57828;SDS011;43657;52.698;6.314;2022-10-16T12:13:46;6.88;;;1.75;;
57828;SDS011;43657;52.698;6.314;2022-10-16T12:16:25;5.70;;;1.50;;
57828;SDS011;43657;52.698;6.314;2022-10-16T12:19:18;8.23;;;1.85;;
57828;SDS011;43657;52.698;6.314;2022-10-16T12:21:53;7.82;;;1.40;;
57828;SDS011;43657;52.698;6.314;2022-10-16T12:30:04;7.13;;;1.77;;
57828;SDS011;43657;52.698;6.314;2022-10-16T12:32:55;4.20;;;1.30;;
57828;SDS011;43657;52.698;6.314;2022-10-16T12:35:42;6.88;;;1.80;;
57828;SDS011;43657;52.698;6.314;2022-10-16T12:38:28;7.35;;;1.50;;
57828;SDS011;43657;52.698;6.314;2022-10-16T12:47:49;5.05;;;1.30;;
57828;SDS011;43657;52.698;6.314;2022-10-16T12:50:31;8.35;;;1.27;;
57828;SDS011;43657;52.698;6.314;2022-10-16T12:53:16;9.80;;;1.98;;
57828;SDS011;43657;52.698;6.314;2022-10-16T12:56:16;7.50;;;1.35;;
57828;SDS011;43657;52.698;6.314;2022-10-16T12:59:21;10.40;;;2.08;;
57828;SDS011;43657;52.698;6.314;2022-10-16T13:12:09;7.28;;;1.38;;
57828;SDS011;43657;52.698;6.314;2022-10-16T13:29:49;4.35;;;1.15;;
57828;SDS011;43657;52.698;6.314;2022-10-16T13:32:58;4.18;;;1.25;;
57828;SDS011;43657;52.698;6.314;2022-10-16T13:35:57;8.45;;;1.77;;
57828;SDS011;43657;52.698;6.314;2022-10-16T13:39:13;5.57;;;1.58;;
57828;SDS011;43657;52.698;6.314;2022-10-16T13:42:01;8.85;;;1.85;;
57828;SDS011;43657;52.698;6.314;2022-10-16T13:45:05;6.10;;;1.50;;
57828;SDS011;43657;52.698;6.314;2022-10-16T13:48:04;4.75;;;1.30;;
57828;SDS011;43657;52.698;6.314;2022-10-16T13:51:17;5.18;;;1.10;;
57828;SDS011;43657;52.698;6.314;2022-10-16T13:54:04;5.25;;;1.20;;
57828;SDS011;43657;52.698;6.314;2022-10-16T13:57:04;5.13;;;1.35;;
57828;SDS011;43657;52.698;6.314;2022-10-16T14:03:27;4.03;;;1.20;;
57828;SDS011;43657;52.698;6.314;2022-10-16T14:06:11;6.22;;;1.38;;
57828;SDS011;43657;52.698;6.314;2022-10-16T14:09:14;6.00;;;1.25;;
57828;SDS011;43657;52.698;6.314;2022-10-16T14:12:13;6.15;;;1.40;;
57828;SDS011;43657;52.698;6.314;2022-10-16T14:18:29;4.95;;;1.30;;
57828;SDS011;43657;52.698;6.314;2022-10-16T14:21:04;5.30;;;1.33;;
57828;SDS011;43657;52.698;6.314;2022-10-16T14:24:25;4.95;;;1.58;;
57828;SDS011;43657;52.698;6.314;2022-10-16T14:26:57;4.78;;;1.40;;
57828;SDS011;43657;52.698;6.314;2022-10-16T14:30:24;5.97;;;1.35;;
57828;SDS011;43657;52.698;6.314;2022-10-16T14:33:38;10.23;;;1.80;;
57828;SDS011;43657;52.698;6.314;2022-10-16T14:38:38;6.03;;;1.40;;
57828;SDS011;43657;52.698;6.314;2022-10-16T14:41:15;5.70;;;1.27;;
57828;SDS011;43657;52.698;6.314;2022-10-16T14:44:02;3.67;;;1.67;;
57828;SDS011;43657;52.698;6.314;2022-10-16T14:46:39;7.88;;;2.00;;
57828;SDS011;43657;52.698;6.314;2022-10-16T14:51:42;4.78;;;1.45;;
57828;SDS011;43657;52.698;6.314;2022-10-16T14:54:22;6.82;;;1.70;;
57828;SDS011;43657;52.698;6.314;2022-10-16T14:57:01;6.57;;;1.70;;
57828;SDS011;43657;52.698;6.314;2022-10-16T15:02:48;6.68;;;1.80;;
57828;SDS011;43657;52.698;6.314;2022-10-16T15:05:33;5.95;;;1.75;;
57828;SDS011;43657;52.698;6.314;2022-10-16T15:08:04;5.80;;;1.60;;
57828;SDS011;43657;52.698;6.314;2022-10-16T15:10:40;6.25;;;1.58;;
57828;SDS011;43657;52.698;6.314;2022-10-16T15:13:22;5.55;;;1.67;;
57828;SDS011;43657;52.698;6.314;2022-10-16T15:21:58;6.53;;;1.70;;
57828;SDS011;43657;52.698;6.314;2022-10-16T15:25:29;4.47;;;1.50;;
57828;SDS011;43657;52.698;6.314;2022-10-16T15:28:28;7.35;;;1.90;;
57828;SDS011;43657;52.698;6.314;2022-10-16T15:31:09;7.28;;;1.95;;
57828;SDS011;43657;52.698;6.314;2022-10-16T15:33:44;5.40;;;1.70;;
57828;SDS011;43657;52.698;6.314;2022-10-16T15:36:36;5.00;;;1.90;;
57828;SDS011;43657;52.698;6.314;2022-10-16T15:39:28;5.07;;;1.70;;
57828;SDS011;43657;52.698;6.314;2022-10-16T15:42:09;6.85;;;1.75;;
57828;SDS011;43657;52.698;6.314;2022-10-16T15:44:50;6.32;;;1.50;;
57828;SDS011;43657;52.698;6.314;2022-10-16T15:47:29;6.63;;;1.90;;
57828;SDS011;43657;52.698;6.314;2022-10-16T15:53:31;7.63;;;1.60;;
57828;SDS011;43657;52.698;6.314;2022-10-16T15:56:06;5.93;;;1.80;;
57828;SDS011;43657;52.698;6.314;2022-10-16T15:58:57;5.88;;;2.00;;
57828;SDS011;43657;52.698;6.314;2022-10-16T16:01:49;6.57;;;1.80;;
57828;SDS011;43657;52.698;6.314;2022-10-16T16:04:45;5.53;;;1.85;;
57828;SDS011;43657;52.698;6.314;2022-10-16T16:07:35;6.28;;;2.00;;
57828;SDS011;43657;52.698;6.314;2022-10-16T16:10:21;4.85;;;1.63;;
57828;SDS011;43657;52.698;6.314;2022-10-16T16:13:04;7.22;;;1.95;;
57828;SDS011;43657;52.698;6.314;2022-10-16T16:15:40;7.55;;;1.92;;
57828;SDS011;43657;52.698;6.314;2022-10-16T16:20:53;5.13;;;1.70;;
57828;SDS011;43657;52.698;6.314;2022-10-16T16:23:22;6.30;;;1.90;;
57828;SDS011;43657;52.698;6.314;2022-10-16T16:26:14;9.32;;;2.10;;
57828;SDS011;43657;52.698;6.314;2022-10-16T16:29:18;4.60;;;2.13;;
57828;SDS011;43657;52.698;6.314;2022-10-16T16:31:44;11.43;;;2.33;;
57828;SDS011;43657;52.698;6.314;2022-10-16T16:34:24;5.40;;;1.75;;
57828;SDS011;43657;52.698;6.314;2022-10-16T16:36:55;10.85;;;2.63;;
57828;SDS011;43657;52.698;6.314;2022-10-16T16:39:32;4.30;;;1.88;;
57828;SDS011;43657;52.698;6.314;2022-10-16T16:42:08;4.45;;;1.75;;
57828;SDS011;43657;52.698;6.314;2022-10-16T16:44:40;5.70;;;2.28;;
57828;SDS011;43657;52.698;6.314;2022-10-16T16:47:15;6.85;;;2.50;;
57828;SDS011;43657;52.698;6.314;2022-10-16T16:50:05;7.25;;;2.47;;
57828;SDS011;43657;52.698;6.314;2022-10-16T16:52:45;4.00;;;1.92;;
57828;SDS011;43657;52.698;6.314;2022-10-16T16:55:16;7.30;;;3.05;;
57828;SDS011;43657;52.698;6.314;2022-10-16T16:58:00;7.50;;;3.35;;
57828;SDS011;43657;52.698;6.314;2022-10-16T17:00:48;5.15;;;2.40;;
57828;SDS011;43657;52.698;6.314;2022-10-16T17:03:20;6.97;;;3.10;;
57828;SDS011;43657;52.698;6.314;2022-10-16T17:06:07;6.80;;;2.70;;
57828;SDS011;43657;52.698;6.314;2022-10-16T17:08:50;6.82;;;2.53;;
57828;SDS011;43657;52.698;6.314;2022-10-16T17:11:39;8.77;;;2.85;;
57828;SDS011;43657;52.698;6.314;2022-10-16T17:14:13;6.90;;;2.78;;
57828;SDS011;43657;52.698;6.314;2022-10-16T17:17:20;9.00;;;3.40;;
57828;SDS011;43657;52.698;6.314;2022-10-16T17:19:53;6.32;;;3.95;;
57828;SDS011;43657;52.698;6.314;2022-10-16T17:22:21;7.53;;;4.25;;
57828;SDS011;43657;52.698;6.314;2022-10-16T17:24:49;7.82;;;4.28;;
57828;SDS011;43657;52.698;6.314;2022-10-16T17:27:36;6.63;;;4.03;;
57828;SDS011;43657;52.698;6.314;2022-10-16T17:30:05;9.18;;;4.32;;
57828;SDS011;43657;52.698;6.314;2022-10-16T17:32:37;7.50;;;4.77;;
57828;SDS011;43657;52.698;6.314;2022-10-16T17:35:03;7.05;;;5.45;;
57828;SDS011;43657;52.698;6.314;2022-10-16T17:37:37;7.18;;;5.07;;
57828;SDS011;43657;52.698;6.314;2022-10-16T17:40:08;9.77;;;5.38;;
57828;SDS011;43657;52.698;6.314;2022-10-16T17:42:37;9.18;;;4.78;;
57828;SDS011;43657;52.698;6.314;2022-10-16T17:45:13;9.07;;;4.68;;
57828;SDS011;43657;52.698;6.314;2022-10-16T17:47:44;7.10;;;5.22;;
57828;SDS011;43657;52.698;6.314;2022-10-16T17:50:10;8.38;;;6.00;;
57828;SDS011;43657;52.698;6.314;2022-10-16T17:52:41;8.65;;;6.93;;
57828;SDS011;43657;52.698;6.314;2022-10-16T17:55:18;8.98;;;6.57;;
57828;SDS011;43657;52.698;6.314;2022-10-16T17:57:46;10.23;;;5.90;;
57828;SDS011;43657;52.698;6.314;2022-10-16T18:00:14;8.32;;;5.85;;
57828;SDS011;43657;52.698;6.314;2022-10-16T18:02:40;9.35;;;5.35;;
57828;SDS011;43657;52.698;6.314;2022-10-16T18:05:08;8.75;;;4.55;;
57828;SDS011;43657;52.698;6.314;2022-10-16T18:07:38;7.38;;;4.47;;
57828;SDS011;43657;52.698;6.314;2022-10-16T18:10:06;10.75;;;4.90;;